Time;durP1;ratioP1;P1;durP2;ratioP2;P2;SDS_P1;SDS_P2;PMS_P1;PMS_P2;Temp;Humidity;BMP_temperature;BMP_pressure;BME280_temperature;BME280_humidity;BME280_pressure;Samples;Min_cycle;Max_cycle;Signal;HPM_P1;HPM_P2
2021/12/23 00:00:49;;;;;;;0.67;0.67;;;-4.10;99.90;;;;;;5262500;28;20034;-71
2021/12/23 00:03:21;;;;;;;0.53;0.53;;;-4.10;99.90;;;;;;5259382;28;20051;-71
2021/12/23 00:05:54;;;;;;;3.50;2.30;;;-4.10;99.90;;;;;;5250601;28;20066;-71
2021/12/23 00:08:26;;;;;;;0.70;0.70;;;-4.10;99.90;;;;;;5239254;28;20043;-72
2021/12/23 00:11:00;;;;;;;0.70;0.70;;;-4.10;99.90;;;;;;5259761;28;20024;-72
2021/12/23 00:13:36;;;;;;;1.05;1.05;;;-4.10;99.90;;;;;;5258977;28;20020;-72
2021/12/23 00:16:18;;;;;;;0.40;0.40;;;-4.30;99.90;;;;;;5258414;28;20579;-71
2021/12/23 00:18:58;;;;;;;1.77;1.70;;;-4.30;99.90;;;;;;5257892;28;20111;-72
2021/12/23 00:24:24;;;;;;;0.60;0.60;;;-4.50;99.90;;;;;;5257673;28;20035;-72
2021/12/23 00:26:55;;;;;;;0.90;0.90;;;-4.60;99.90;;;;;;5256711;28;20509;-72
2021/12/23 00:29:28;;;;;;;1.33;1.33;;;-4.60;99.90;;;;;;5238945;28;20020;-73
2021/12/23 00:32:05;;;;;;;0.50;0.50;;;-4.70;99.90;;;;;;5256159;28;20062;-72
2021/12/23 00:34:41;;;;;;;0.60;0.60;;;-4.60;99.90;;;;;;5240380;28;20126;-72
2021/12/23 00:37:13;;;;;;;0.60;0.60;;;-4.50;99.90;;;;;;5259857;28;20058;-72
2021/12/23 00:39:46;;;;;;;0.70;0.70;;;-4.50;99.90;;;;;;5260567;28;20275;-72
2021/12/23 00:42:19;;;;;;;0.60;0.60;;;-4.40;99.90;;;;;;5242362;28;20071;-73
2021/12/23 00:44:52;;;;;;;0.50;0.50;;;-4.50;99.90;;;;;;5259789;28;20085;-72
2021/12/23 00:47:22;;;;;;;0.33;0.33;;;-4.50;99.90;;;;;;5259368;28;20437;-72
2021/12/23 00:49:53;;;;;;;0.90;0.90;;;-4.50;99.90;;;;;;5248332;28;20039;-72
2021/12/23 00:52:35;;;;;;;0.70;0.70;;;-4.50;99.90;;;;;;5258835;28;20783;-72
2021/12/23 00:55:10;;;;;;;1.23;1.20;;;-4.60;99.90;;;;;;5260766;28;20020;-71
2021/12/23 00:57:45;;;;;;;0.40;0.40;;;-4.60;99.90;;;;;;5260228;28;20492;-71
2021/12/23 01:00:22;;;;;;;0.70;0.70;;;-4.50;99.90;;;;;;5242856;28;20085;-72
2021/12/23 01:02:59;;;;;;;0.50;0.50;;;-4.60;99.90;;;;;;5250562;28;20036;-72
2021/12/23 01:05:34;;;;;;;0.67;0.67;;;-4.60;99.90;;;;;;5248344;28;20067;-72
2021/12/23 01:08:12;;;;;;;0.53;0.53;;;-4.60;99.90;;;;;;5261959;28;20044;-71
2021/12/23 01:10:42;;;;;;;0.50;0.50;;;-4.70;99.90;;;;;;5261938;28;20467;-72
2021/12/23 01:13:14;;;;;;;0.50;0.50;;;-4.70;99.90;;;;;;5262264;28;20027;-72
2021/12/23 01:16:13;;;;;;;1.60;0.80;;;-4.70;99.90;;;;;;5262958;28;20024;-72
2021/12/23 01:18:51;;;;;;;1.60;1.57;;;-4.70;99.90;;;;;;5240667;28;20051;-72
2021/12/23 01:21:22;;;;;;;0.60;0.60;;;-4.70;99.90;;;;;;5232716;28;20037;-72
2021/12/23 01:23:57;;;;;;;0.87;0.87;;;-4.70;99.90;;;;;;5255582;28;20302;-72
2021/12/23 01:26:31;;;;;;;2.07;1.97;;;-4.70;99.90;;;;;;5261941;28;20028;-71
2021/12/23 01:29:06;;;;;;;0.50;0.50;;;-4.70;99.90;;;;;;5262441;28;20035;-72
2021/12/23 01:31:45;;;;;;;0.50;0.50;;;-4.70;99.90;;;;;;5261072;28;20040;-72
2021/12/23 01:34:18;;;;;;;0.50;0.50;;;-4.70;99.90;;;;;;5259897;28;20032;-72
2021/12/23 01:36:48;;;;;;;0.73;0.73;;;-4.60;99.90;;;;;;5262389;28;20028;-72
2021/12/23 01:39:22;;;;;;;9.33;2.40;;;-4.60;99.90;;;;;;5262411;28;20047;-72
2021/12/23 01:41:56;;;;;;;1.40;1.40;;;-4.60;99.90;;;;;;5254367;28;20040;-71
2021/12/23 01:44:27;;;;;;;1.10;1.10;;;-4.60;99.90;;;;;;5245586;28;20340;-72
2021/12/23 01:47:00;;;;;;;0.57;0.57;;;-4.60;99.90;;;;;;5256186;28;20033;-72
2021/12/23 01:49:36;;;;;;;0.70;0.70;;;-4.60;99.90;;;;;;5240420;28;20024;-72
2021/12/23 01:52:10;;;;;;;0.50;0.50;;;-4.60;99.90;;;;;;5253664;28;20288;-72
2021/12/23 01:54:43;;;;;;;0.57;0.57;;;-4.60;99.90;;;;;;5260489;28;20075;-72
2021/12/23 01:57:16;;;;;;;0.40;0.40;;;-4.70;99.90;;;;;;5259909;28;20390;-72
2021/12/23 01:59:54;;;;;;;0.57;0.57;;;-4.70;99.90;;;;;;5245394;28;20032;-72
2021/12/23 02:02:31;;;;;;;1.97;1.87;;;-4.70;99.90;;;;;;5258358;28;20052;-72
2021/12/23 02:05:07;;;;;;;0.60;0.60;;;-4.70;99.90;;;;;;5236931;28;20064;-72
2021/12/23 02:07:38;;;;;;;1.63;1.53;;;-4.70;99.90;;;;;;5244031;28;20059;-72
2021/12/23 02:10:13;;;;;;;1.37;1.27;;;-4.80;99.90;;;;;;5261676;28;20047;-71
2021/12/23 02:12:47;;;;;;;0.50;0.50;;;-4.80;99.90;;;;;;5259425;28;20051;-71
2021/12/23 02:15:26;;;;;;;1.38;1.38;;;-4.80;99.90;;;;;;5261786;28;20153;-72
2021/12/23 02:18:01;;;;;;;1.77;1.70;;;-4.80;99.90;;;;;;5262141;28;20043;-72
2021/12/23 02:20:44;;;;;;;0.40;0.40;;;-4.80;99.90;;;;;;5261214;28;20385;-72
2021/12/23 02:23:17;;;;;;;1.80;1.63;;;-4.90;99.90;;;;;;5260928;28;20066;-72
2021/12/23 02:25:50;;;;;;;1.23;1.23;;;-4.90;99.90;;;;;;5242937;28;20028;-72
2021/12/23 02:28:22;;;;;;;0.50;0.50;;;-5.00;99.90;;;;;;5260904;28;20341;-72
2021/12/23 02:30:58;;;;;;;0.80;0.80;;;-5.00;99.90;;;;;;5258644;28;20103;-71
2021/12/23 02:33:34;;;;;;;0.60;0.60;;;-5.00;99.90;;;;;;5261243;28;20012;-71
2021/12/23 02:36:05;;;;;;;0.40;0.40;;;-5.00;99.90;;;;;;5261011;28;20035;-72
2021/12/23 02:38:38;;;;;;;1.33;1.33;;;-5.00;99.90;;;;;;5261719;28;20095;-71
2021/12/23 02:41:09;;;;;;;0.60;0.60;;;-5.00;99.90;;;;;;5242532;28;20032;-70
2021/12/23 02:43:41;;;;;;;4.47;4.20;;;-5.10;99.90;;;;;;5243453;28;20032;-71
2021/12/23 02:46:18;;;;;;;1.20;1.20;;;-5.10;99.90;;;;;;5242108;28;20047;-71
2021/12/23 02:48:51;;;;;;;0.87;0.87;;;-5.10;99.90;;;;;;5234232;28;20335;-71
2021/12/23 02:51:22;;;;;;;0.82;0.82;;;-5.20;99.90;;;;;;5241426;28;20462;-71
2021/12/23 02:53:58;;;;;;;1.13;1.07;;;-5.30;99.90;;;;;;5255012;28;20060;-71
2021/12/23 02:56:34;;;;;;;0.50;0.50;;;-5.30;99.90;;;;;;5260394;28;20085;-71
2021/12/23 02:59:08;;;;;;;0.60;0.60;;;-5.20;99.90;;;;;;5252029;28;20385;-72
2021/12/23 03:01:42;;;;;;;0.60;0.60;;;-5.10;99.90;;;;;;5224850;28;20020;-72
2021/12/23 03:04:16;;;;;;;1.63;1.53;;;-5.10;99.90;;;;;;5249844;28;20040;-72
2021/12/23 03:06:50;;;;;;;2.28;2.15;;;-5.10;99.90;;;;;;5246382;28;20369;-72
2021/12/23 03:09:21;;;;;;;0.52;0.52;;;-5.20;99.90;;;;;;5239467;28;20043;-73
2021/12/23 03:11:57;;;;;;;1.17;1.17;;;-5.20;99.90;;;;;;5221640;28;20032;-73
2021/12/23 03:14:29;;;;;;;0.87;0.87;;;-5.30;99.90;;;;;;5250818;28;20468;-72
2021/12/23 03:17:00;;;;;;;0.50;0.50;;;-5.30;99.90;;;;;;5258813;28;20497;-73
2021/12/23 03:19:36;;;;;;;0.67;0.67;;;-5.40;99.90;;;;;;5245046;28;20036;-73
2021/12/23 03:22:09;;;;;;;0.63;0.63;;;-5.40;99.90;;;;;;5224763;28;20047;-73
2021/12/23 03:24:42;;;;;;;2.23;2.10;;;-5.40;99.90;;;;;;5248581;28;20134;-72
2021/12/23 03:27:19;;;;;;;0.40;0.40;;;-5.40;99.90;;;;;;5259932;28;20110;-72
2021/12/23 03:29:51;;;;;;;0.40;0.40;;;-5.50;99.90;;;;;;5258696;28;20108;-72
2021/12/23 03:32:23;;;;;;;0.47;0.47;;;-5.50;99.90;;;;;;5226325;28;20116;-72
2021/12/23 03:34:54;;;;;;;0.60;0.60;;;-5.50;99.90;;;;;;5258493;28;20039;-72
2021/12/23 03:37:25;;;;;;;0.87;0.87;;;-5.60;99.90;;;;;;5260150;28;20325;-72
2021/12/23 03:40:02;;;;;;;0.63;0.63;;;-5.60;99.90;;;;;;5258979;28;20035;-72
2021/12/23 03:42:36;;;;;;;0.57;0.57;;;-5.60;99.90;;;;;;5259303;28;20039;-72
2021/12/23 03:45:08;;;;;;;2.97;2.78;;;-5.50;99.90;;;;;;5259215;28;20027;-72
2021/12/23 03:47:42;;;;;;;0.50;0.50;;;-5.50;99.90;;;;;;5260517;28;20039;-73
2021/12/23 03:50:17;;;;;;;1.33;1.33;;;-5.50;99.90;;;;;;5237626;28;20126;-72
2021/12/23 03:52:52;;;;;;;1.17;1.17;;;-5.50;99.90;;;;;;5248237;28;20043;-72
2021/12/23 03:55:27;;;;;;;0.73;0.73;;;-5.60;99.90;;;;;;5245288;28;20039;-71
2021/12/23 03:58:01;;;;;;;0.80;0.80;;;-5.50;99.90;;;;;;5261991;28;20040;-71
2021/12/23 04:00:44;;;;;;;1.13;1.13;;;-5.60;99.90;;;;;;5262551;28;20073;-71
2021/12/23 04:03:20;;;;;;;0.50;0.50;;;-5.50;99.90;;;;;;5259693;28;20024;-71
2021/12/23 04:05:57;;;;;;;0.50;0.50;;;-5.50;99.90;;;;;;5248233;28;20114;-71
2021/12/23 04:08:29;;;;;;;1.30;1.30;;;-5.50;99.90;;;;;;5259718;28;20028;-71
2021/12/23 04:11:05;;;;;;;0.60;0.60;;;-5.50;99.90;;;;;;5259389;28;20016;-71
2021/12/23 04:13:39;;;;;;;0.40;0.40;;;-5.40;99.90;;;;;;5260275;28;20059;-71
2021/12/23 04:16:12;;;;;;;;;;;-5.40;99.90;;;;;;5242435;28;20327;-71
2021/12/23 04:18:46;;;;;;;0.60;0.60;;;-5.50;99.90;;;;;;5241861;28;19920;-71
2021/12/23 04:21:24;;;;;;;0.50;0.50;;;-5.50;99.90;;;;;;5257214;28;20066;-71
2021/12/23 04:23:55;;;;;;;1.17;1.17;;;-5.50;99.90;;;;;;5259538;28;20024;-71
2021/12/23 04:26:29;;;;;;;0.50;0.50;;;-5.50;99.90;;;;;;5257211;28;20095;-71
2021/12/23 04:29:00;;;;;;;0.50;0.50;;;-5.50;99.90;;;;;;5242905;28;20406;-71
2021/12/23 04:31:37;;;;;;;2.73;2.57;;;-5.50;99.90;;;;;;5256425;28;20031;-71
2021/12/23 04:34:08;;;;;;;0.50;0.50;;;-5.50;99.90;;;;;;5257680;28;20095;-71
2021/12/23 04:36:44;;;;;;;0.50;0.50;;;-5.60;99.90;;;;;;5257992;28;20016;-73
2021/12/23 04:39:17;;;;;;;0.70;0.70;;;-5.60;99.90;;;;;;5260486;28;20463;-71
2021/12/23 04:41:47;;;;;;;0.52;0.52;;;-5.50;99.90;;;;;;5258614;28;20089;-71
2021/12/23 04:44:20;;;;;;;0.50;0.50;;;-5.50;99.90;;;;;;5258913;28;20028;-71
2021/12/23 04:46:54;;;;;;;0.40;0.40;;;-5.50;99.90;;;;;;5258951;28;20036;-71
2021/12/23 04:49:25;;;;;;;0.82;0.82;;;-5.50;99.90;;;;;;5239772;28;20112;-71
2021/12/23 04:51:58;;;;;;;1.70;1.60;;;-5.50;99.90;;;;;;5256500;28;20554;-71
2021/12/23 04:54:29;;;;;;;0.43;0.43;;;-5.50;99.90;;;;;;5257994;28;20232;-71
2021/12/23 04:57:01;;;;;;;1.03;1.03;;;-5.50;99.90;;;;;;5260860;28;20089;-71
2021/12/23 04:59:32;;;;;;;1.07;1.07;;;-5.60;99.90;;;;;;5227225;28;20038;-70
2021/12/23 05:02:09;;;;;;;0.77;0.77;;;-5.60;99.90;;;;;;5256591;28;20117;-71
2021/12/23 05:04:42;;;;;;;0.33;0.33;;;-5.70;99.90;;;;;;5246803;28;20052;-71
2021/12/23 05:07:13;;;;;;;0.50;0.50;;;-5.60;99.90;;;;;;5244006;28;20047;-71
2021/12/23 05:09:44;;;;;;;1.00;1.00;;;-5.50;99.90;;;;;;5231503;28;20096;-71
2021/12/23 05:12:23;;;;;;;0.70;0.70;;;-5.40;99.90;;;;;;5258085;28;20077;-71
2021/12/23 05:14:56;;;;;;;1.03;1.03;;;-5.40;99.90;;;;;;5258401;28;20020;-71
2021/12/23 05:17:27;;;;;;;0.65;0.65;;;-5.30;99.90;;;;;;5258233;28;20036;-71
2021/12/23 05:19:58;;;;;;;1.33;1.33;;;-5.10;99.90;;;;;;5249972;28;20337;-71
2021/12/23 05:22:29;;;;;;;0.73;0.73;;;-5.00;99.90;;;;;;5257974;28;20085;-72
2021/12/23 05:25:10;;;;;;;0.50;0.50;;;-4.90;99.90;;;;;;5257465;28;20526;-71
2021/12/23 05:27:43;;;;;;;0.70;0.70;;;-4.80;99.90;;;;;;5237246;28;20036;-72
2021/12/23 05:30:17;;;;;;;0.90;0.90;;;-4.80;99.90;;;;;;5238030;28;20025;-72
2021/12/23 05:32:58;;;;;;;0.63;0.63;;;-4.80;99.90;;;;;;5238463;28;20073;-72
2021/12/23 05:35:32;;;;;;;0.53;0.53;;;-4.80;99.90;;;;;;5259575;28;20032;-72
2021/12/23 05:38:08;;;;;;;0.60;0.60;;;-4.70;99.90;;;;;;5258412;28;20097;-74
2021/12/23 05:40:44;;;;;;;1.17;1.10;;;-4.70;99.90;;;;;;5257707;28;20447;-74
2021/12/23 05:43:15;;;;;;;1.83;1.73;;;-4.60;99.90;;;;;;5257953;28;20145;-73
2021/12/23 05:45:47;;;;;;;1.63;1.53;;;-4.60;99.90;;;;;;5222650;28;20550;-73
2021/12/23 05:48:18;;;;;;;0.50;0.50;;;-4.50;99.90;;;;;;5256200;28;20040;-71
2021/12/23 05:50:54;;;;;;;0.60;0.60;;;-4.40;99.90;;;;;;5244023;28;20040;-72
2021/12/23 05:53:35;;;;;;;1.43;1.43;;;-4.30;99.90;;;;;;5244491;28;20046;-72
2021/12/23 05:56:09;;;;;;;1.97;1.87;;;-4.30;99.90;;;;;;5261747;28;20020;-71
2021/12/23 05:58:45;;;;;;;;;;;-4.30;99.90;;;;;;5245472;28;20460;-71
2021/12/23 06:01:19;;;;;;;0.80;0.80;;;-4.30;99.90;;;;;;5262952;28;19916;-72
2021/12/23 06:03:55;;;;;;;1.57;1.57;;;-4.30;99.90;;;;;;5261977;28;20032;-71
2021/12/23 06:06:26;;;;;;;1.70;1.63;;;-4.30;99.90;;;;;;5241284;28;20300;-72
2021/12/23 06:09:01;;;;;;;1.13;1.10;;;-4.20;99.90;;;;;;5240928;28;20052;-72
2021/12/23 06:11:34;;;;;;;1.33;1.33;;;-4.20;99.90;;;;;;5250773;28;20032;-72
2021/12/23 06:14:05;;;;;;;1.20;1.20;;;-4.20;99.90;;;;;;5258206;28;20121;-72
2021/12/23 06:16:42;;;;;;;0.50;0.50;;;-4.10;99.90;;;;;;5258505;28;20129;-72
2021/12/23 06:19:12;;;;;;;0.60;0.60;;;-4.20;99.90;;;;;;5258571;28;20272;-72
2021/12/23 06:21:45;;;;;;;1.37;1.37;;;-4.10;99.90;;;;;;5258932;28;20050;-72
2021/12/23 06:24:18;;;;;;;0.50;0.50;;;-4.00;99.90;;;;;;5237180;28;20040;-72
2021/12/23 06:26:51;;;;;;;0.50;0.50;;;-4.00;99.90;;;;;;5259668;28;20020;-72
2021/12/23 06:29:27;;;;;;;0.73;0.73;;;-4.20;99.90;;;;;;5261167;28;20109;-72
2021/12/23 06:31:58;;;;;;;2.60;2.50;;;-4.20;99.90;;;;;;5243706;28;20754;-73
2021/12/23 06:34:30;;;;;;;5.87;1.07;;;-4.10;99.90;;;;;;5264548;28;20020;-72
2021/12/23 06:37:04;;;;;;;0.43;0.43;;;-4.00;99.90;;;;;;5263511;28;20020;-72
2021/12/23 06:39:38;;;;;;;;;;;-4.00;99.90;;;;;;5265926;28;20020;-72
2021/12/23 06:42:09;;;;;;;0.70;0.70;;;-4.10;99.90;;;;;;5263806;28;19965;-72
2021/12/23 06:44:45;;;;;;;0.50;0.50;;;-4.10;99.90;;;;;;5247188;28;20261;-72
2021/12/23 06:47:18;;;;;;;0.80;0.80;;;-4.10;99.90;;;;;;5229832;28;20034;-72
2021/12/23 06:49:49;;;;;;;0.60;0.60;;;-4.10;99.90;;;;;;5262952;28;20024;-72
2021/12/23 06:52:20;;;;;;;1.73;1.63;;;-4.20;99.90;;;;;;5249560;28;20039;-72
2021/12/23 06:54:54;;;;;;;0.90;0.90;;;-4.20;99.90;;;;;;5266921;28;20306;-73
2021/12/23 06:57:26;;;;;;;0.50;0.50;;;-4.10;99.90;;;;;;5264015;28;20023;-72
2021/12/23 06:59:57;;;;;;;0.93;0.93;;;-4.00;99.90;;;;;;5265319;28;20028;-72
2021/12/23 07:02:37;;;;;;;0.80;0.80;;;-3.90;99.90;;;;;;5264511;28;20294;-72
2021/12/23 07:05:12;;;;;;;0.60;0.60;;;-3.90;99.90;;;;;;5240974;28;20051;-73
2021/12/23 07:07:56;;;;;;;0.50;0.50;;;-3.90;99.90;;;;;;5272765;28;20036;-72
2021/12/23 07:10:35;;;;;;;0.93;0.93;;;-3.70;99.90;;;;;;5264957;28;20028;-72
2021/12/23 07:13:06;;;;;;;0.80;0.80;;;-3.60;99.90;;;;;;5263607;28;20085;-72
2021/12/23 07:15:38;;;;;;;1.60;1.50;;;-3.60;99.90;;;;;;5250574;28;20048;-72
2021/12/23 07:18:12;;;;;;;0.60;0.60;;;-3.50;99.90;;;;;;5245976;28;20039;-72
2021/12/23 07:20:46;;;;;;;1.55;1.55;;;-3.60;99.90;;;;;;5278926;28;20089;-72
2021/12/23 07:23:17;;;;;;;0.40;0.40;;;-3.50;99.90;;;;;;5263780;28;20036;-72
2021/12/23 07:25:48;;;;;;;0.60;0.60;;;-3.50;99.90;;;;;;5248469;28;20040;-73
2021/12/23 07:28:22;;;;;;;1.60;1.50;;;-3.50;99.90;;;;;;5257283;28;20044;-72
2021/12/23 07:30:55;;;;;;;1.83;1.73;;;-3.40;99.90;;;;;;5244631;28;20079;-73
2021/12/23 07:33:31;;;;;;;0.70;0.70;;;-3.30;99.90;;;;;;5263177;28;20036;-75
2021/12/23 07:36:14;;;;;;;1.60;1.57;;;-3.20;99.90;;;;;;5258768;28;20162;-73
2021/12/23 07:38:48;;;;;;;1.73;1.63;;;-3.20;99.90;;;;;;5261233;28;20511;-73
2021/12/23 07:41:20;;;;;;;0.75;0.75;;;-3.10;99.90;;;;;;5228231;28;20356;-73
2021/12/23 07:43:59;;;;;;;0.80;0.80;;;-3.20;99.90;;;;;;5262168;28;20392;-72
2021/12/23 07:46:36;;;;;;;0.53;0.53;;;-3.10;99.90;;;;;;5246486;28;20069;-73
2021/12/23 07:49:09;;;;;;;0.60;0.60;;;-2.90;99.90;;;;;;5245128;28;20154;-73
2021/12/23 07:51:40;;;;;;;0.65;0.65;;;-2.80;99.90;;;;;;5245638;28;20077;-72
2021/12/23 07:54:14;;;;;;;1.23;1.23;;;-2.80;99.90;;;;;;5261267;28;20055;-72
2021/12/23 07:56:48;;;;;;;2.05;1.95;;;-2.90;99.90;;;;;;5228585;28;20040;-73
2021/12/23 07:59:24;;;;;;;0.40;0.40;;;-2.80;99.90;;;;;;5244780;28;20443;-73
2021/12/23 08:02:00;;;;;;;3.77;3.30;;;-2.70;99.90;;;;;;5249763;28;20379;-74
2021/12/23 08:04:35;;;;;;;1.23;1.23;;;-2.60;99.90;;;;;;5248141;28;20071;-73
2021/12/23 08:07:09;;;;;;;2.43;2.33;;;-2.70;99.90;;;;;;5253022;28;20093;-74
2021/12/23 08:09:42;;;;;;;1.42;1.40;;;-2.60;99.90;;;;;;5255525;28;20016;-74
2021/12/23 08:12:19;;;;;;;0.70;0.70;;;-2.70;99.90;;;;;;5261640;28;20039;-74
2021/12/23 08:15:01;;;;;;;0.87;0.87;;;-2.80;99.90;;;;;;5259078;28;20048;-73
2021/12/23 08:17:34;;;;;;;2.17;2.07;;;-2.70;99.90;;;;;;5257397;28;20028;-73
2021/12/23 08:20:11;;;;;;;0.93;0.93;;;-2.70;99.90;;;;;;5257984;28;20206;-73
2021/12/23 08:22:43;;;;;;;1.33;1.33;;;-2.80;99.90;;;;;;5260742;28;20051;-73
2021/12/23 08:25:14;;;;;;;1.17;1.17;;;-2.70;99.90;;;;;;5262823;28;20063;-73
2021/12/23 08:27:51;;;;;;;0.50;0.50;;;-2.60;99.90;;;;;;5263094;28;20232;-73
2021/12/23 08:30:28;;;;;;;0.60;0.60;;;-2.50;99.90;;;;;;5261065;28;20050;-73
2021/12/23 08:33:02;;;;;;;0.80;0.80;;;-2.40;99.90;;;;;;5261800;28;20327;-73
2021/12/23 08:35:35;;;;;;;0.98;0.98;;;-2.30;99.90;;;;;;5261701;28;20047;-74
2021/12/23 08:38:09;;;;;;;0.77;0.77;;;-2.40;99.90;;;;;;5244020;28;20031;-73
2021/12/23 08:40:43;;;;;;;0.98;0.98;;;-2.40;99.90;;;;;;5278456;28;20036;-73
2021/12/23 08:43:21;;;;;;;0.77;0.77;;;-2.50;99.90;;;;;;5253360;28;20059;-74
2021/12/23 08:45:55;;;;;;;0.47;0.47;;;-2.40;99.90;;;;;;5258139;28;20523;-73
2021/12/23 08:48:29;;;;;;;1.75;1.58;;;-2.30;99.90;;;;;;5262428;28;20469;-74
2021/12/23 08:50:59;;;;;;;1.50;1.40;;;-2.30;99.90;;;;;;5253898;28;20115;-73
2021/12/23 08:53:33;;;;;;;0.40;0.40;;;-2.30;99.90;;;;;;5260766;28;20036;-74
2021/12/23 08:56:08;;;;;;;1.00;1.00;;;-2.40;99.90;;;;;;5259778;28;20214;-73
2021/12/23 08:58:39;;;;;;;1.23;1.23;;;-2.40;99.90;;;;;;5259923;28;20619;-73
2021/12/23 09:01:14;;;;;;;0.93;0.93;;;-2.20;99.90;;;;;;5260390;28;20201;-74
2021/12/23 09:03:48;;;;;;;1.40;1.40;;;-2.10;99.90;;;;;;5259204;28;20028;-74
2021/12/23 09:06:28;;;;;;;1.70;1.63;;;-2.00;99.90;;;;;;5239084;28;20056;-73
2021/12/23 09:08:58;;;;;;;1.97;1.87;;;-2.20;99.90;;;;;;5258806;28;20028;-75
2021/12/23 09:11:55;;;;;;;2.43;2.23;;;-2.30;99.90;;;;;;5253051;28;20024;-74
2021/12/23 09:14:31;;;;;;;1.37;1.37;;;-2.30;99.90;;;;;;5196332;28;20029;-73
2021/12/23 09:17:03;;;;;;;0.70;0.70;;;-2.10;99.90;;;;;;5184013;28;20511;-73
2021/12/23 09:19:37;;;;;;;1.90;1.83;;;-1.90;99.90;;;;;;5219751;28;20130;-73
2021/12/23 09:22:12;;;;;;;1.42;1.40;;;-1.80;99.90;;;;;;5202632;28;20021;-73
2021/12/23 09:24:48;;;;;;;0.40;0.40;;;-1.70;99.90;;;;;;5225103;28;20071;-73
2021/12/23 09:33:14;;;;;;;1.13;1.13;;;-1.90;99.90;;;;;;5203769;28;20385;-74
2021/12/23 09:35:49;;;;;;;1.05;1.05;;;-2.00;99.90;;;;;;5186510;28;20052;-74
2021/12/23 09:38:27;;;;;;;0.50;0.50;;;-2.00;99.90;;;;;;5213119;28;20557;-74
2021/12/23 09:41:07;;;;;;;0.77;0.77;;;-1.90;99.90;;;;;;5202956;28;20037;-75
2021/12/23 09:43:43;;;;;;;0.50;0.50;;;-2.00;99.90;;;;;;5201670;28;20499;-73
2021/12/23 09:46:20;;;;;;;1.10;1.10;;;-2.00;99.90;;;;;;5219925;28;20025;-73
2021/12/23 09:48:54;;;;;;;0.43;0.43;;;-1.90;99.90;;;;;;5204585;28;20596;-73
2021/12/23 09:51:34;;;;;;;0.57;0.57;;;-1.60;99.90;;;;;;5214417;28;20048;-73
2021/12/23 09:54:09;;;;;;;0.90;0.90;;;-1.50;99.90;;;;;;5261604;28;20028;-73
2021/12/23 09:56:42;;;;;;;0.50;0.50;;;-1.50;99.90;;;;;;5261792;28;20036;-74
2021/12/23 09:59:26;;;;;;;1.07;1.07;;;-1.40;99.90;;;;;;5248408;28;20150;-75
2021/12/23 10:02:00;;;;;;;1.48;1.38;;;-1.10;99.90;;;;;;5261043;28;20380;-74
2021/12/23 10:04:31;;;;;;;3.05;2.80;;;-1.30;99.90;;;;;;5246775;28;20053;-74
2021/12/23 10:07:08;;;;;;;0.67;0.67;;;-1.30;99.90;;;;;;5243359;28;20063;-74
2021/12/23 10:10:10;;;;;;;0.50;0.50;;;-1.10;99.90;;;;;;5255302;28;20044;-74
2021/12/23 10:38:53;;;;;;;0.43;0.43;;;-0.40;99.90;;;;;;5241891;28;20020;-76
2021/12/23 10:41:27;;;;;;;1.02;1.02;;;-0.20;99.90;;;;;;5241174;28;20097;-75
2021/12/23 10:44:03;;;;;;;0.52;0.52;;;-0.10;99.90;;;;;;5258915;28;20031;-75
2021/12/23 10:46:42;;;;;;;0.38;0.38;;;-0.10;99.90;;;;;;5260775;28;20051;-75
2021/12/23 11:00:31;;;;;;;1.10;1.10;;;-0.30;99.90;;;;;;5256716;28;20032;-78
2021/12/23 11:03:25;;;;;;;2.05;1.95;;;0.00;99.90;;;;;;5260115;28;20036;-76
2021/12/23 11:11:59;;;;;;;0.73;0.73;;;0.10;99.90;;;;;;5260478;28;20296;-77
2021/12/23 11:35:51;;;;;;;0.68;0.68;;;0.30;99.90;;;;;;5196959;28;20049;-77
2021/12/23 11:38:40;;;;;;;0.60;0.60;;;0.30;99.90;;;;;;5196570;28;20029;-77
2021/12/23 11:43:50;;;;;;;2.10;2.00;;;0.50;99.90;;;;;;5192433;28;20041;-78
2021/12/23 11:46:24;;;;;;;0.82;0.82;;;0.60;99.90;;;;;;5181784;28;20041;-77
2021/12/23 11:48:57;;;;;;;;;;;0.70;99.90;;;;;;5198782;28;20072;-79
2021/12/23 11:51:33;;;;;;;1.55;1.50;;;0.90;99.90;;;;;;5163798;28;20018;-77
2021/12/23 11:54:07;;;;;;;1.00;1.00;;;0.80;99.90;;;;;;5212730;28;20033;-79
2021/12/23 11:57:03;;;;;;;2.13;2.00;;;0.80;99.90;;;;;;5177532;28;20275;-78
2021/12/23 11:59:48;;;;;;;1.23;1.23;;;0.90;99.90;;;;;;5177283;28;20041;-78
2021/12/23 12:02:29;;;;;;;0.85;0.85;;;0.60;99.90;;;;;;5187889;28;20033;-78
2021/12/23 12:05:05;;;;;;;0.43;0.43;;;0.60;99.90;;;;;;5184166;28;20085;-77
2021/12/23 12:07:41;;;;;;;0.80;0.80;;;1.00;99.90;;;;;;5193474;28;20084;-75
2021/12/23 12:10:23;;;;;;;0.60;0.60;;;0.70;99.90;;;;;;5245692;28;20518;-77
2021/12/23 12:13:05;;;;;;;4.22;2.85;;;0.50;99.90;;;;;;5259406;28;20027;-78
2021/12/23 12:15:43;;;;;;;2.05;1.95;;;0.90;99.90;;;;;;5242500;28;20450;-78
2021/12/23 12:18:23;;;;;;;1.75;1.65;;;1.10;99.90;;;;;;5259491;28;20040;-77
2021/12/23 12:21:00;;;;;;;1.40;1.40;;;1.40;99.90;;;;;;5238951;28;20053;-78
2021/12/23 12:23:41;;;;;;;0.98;0.98;;;1.60;99.90;;;;;;5246491;28;20015;-78
2021/12/23 12:26:26;;;;;;;1.05;1.05;;;1.40;99.90;;;;;;5255617;28;20032;-77
2021/12/23 12:28:56;;;;;;;;;;;1.00;99.90;;;;;;5262461;28;20228;-79
2021/12/23 12:31:37;;;;;;;0.80;0.80;;;1.10;99.90;;;;;;5261478;28;19920;-78
2021/12/23 12:34:10;;;;;;;1.05;1.05;;;1.00;99.90;;;;;;5259874;28;20474;-78
2021/12/23 12:36:44;;;;;;;0.90;0.90;;;1.30;99.90;;;;;;5260924;28;20039;-78
2021/12/23 12:39:24;;;;;;;0.68;0.68;;;1.20;99.90;;;;;;5255459;28;20069;-80
2021/12/23 12:42:05;;;;;;;2.00;1.85;;;0.70;99.90;;;;;;5247786;28;20028;-77
2021/12/23 12:44:53;;;;;;;0.98;0.98;;;0.80;99.90;;;;;;5244015;28;20348;-79
2021/12/23 12:47:30;;;;;;;1.55;1.55;;;0.80;99.90;;;;;;5260710;28;20028;-78
2021/12/23 12:50:15;;;;;;;0.40;0.40;;;0.50;99.90;;;;;;5225630;28;20479;-78
2021/12/23 12:52:50;;;;;;;0.80;0.80;;;0.90;99.90;;;;;;5269021;28;20024;-77
2021/12/23 12:55:31;;;;;;;0.70;0.70;;;0.80;99.90;;;;;;5267485;28;20050;-79
2021/12/23 12:58:08;;;;;;;1.70;1.58;;;1.10;99.90;;;;;;5251842;28;20330;-77
2021/12/23 13:00:43;;;;;;;1.52;1.45;;;1.00;99.90;;;;;;5255936;28;20104;-79
2021/12/23 13:03:21;;;;;;;0.50;0.50;;;1.20;99.90;;;;;;5250453;28;20443;-80
2021/12/23 13:05:54;;;;;;;0.47;0.47;;;1.10;99.90;;;;;;5233000;28;20381;-79
2021/12/23 13:08:29;;;;;;;1.98;1.88;;;1.00;99.90;;;;;;5244147;28;20104;-79
2021/12/23 13:11:08;;;;;;;0.98;0.98;;;1.20;99.90;;;;;;5259543;28;20497;-78
2021/12/23 13:13:59;;;;;;;2.03;1.92;;;1.30;99.90;;;;;;5263359;28;20101;-77
2021/12/23 13:16:35;;;;;;;0.80;0.80;;;1.20;99.90;;;;;;5265877;28;20212;-79
2021/12/23 13:19:18;;;;;;;0.70;0.70;;;1.20;99.90;;;;;;5263072;28;20040;-78
2021/12/23 13:21:56;;;;;;;1.63;1.58;;;1.10;99.90;;;;;;5265965;28;20035;-78
2021/12/23 13:24:29;;;;;;;1.40;1.38;;;1.00;99.90;;;;;;5264923;28;20036;-79
2021/12/23 13:27:03;;;;;;;2.10;2.00;;;1.20;99.90;;;;;;5280811;28;20113;-79
2021/12/23 13:29:41;;;;;;;1.90;1.80;;;1.10;99.90;;;;;;5271052;28;20032;-79
2021/12/23 13:32:12;;;;;;;1.38;1.38;;;1.00;99.90;;;;;;5246607;28;20066;-79
2021/12/23 13:34:45;;;;;;;0.95;0.95;;;0.90;99.90;;;;;;5262594;28;20144;-79
2021/12/23 13:37:21;;;;;;;1.08;1.08;;;0.70;99.90;;;;;;5263359;28;20032;-78
2021/12/23 13:39:52;;;;;;;0.75;0.75;;;0.50;99.90;;;;;;5265706;28;20035;-79
2021/12/23 13:42:23;;;;;;;2.25;1.90;;;0.60;99.90;;;;;;5277375;28;20168;-78
2021/12/23 13:44:57;;;;;;;1.98;1.88;;;0.50;99.90;;;;;;5264676;28;20087;-80
2021/12/23 13:47:28;;;;;;;0.38;0.38;;;0.60;99.90;;;;;;5265050;28;20031;-79
2021/12/23 13:49:59;;;;;;;0.98;0.98;;;0.70;99.90;;;;;;5246067;28;20032;-79
2021/12/23 13:52:44;;;;;;;0.60;0.60;;;0.80;99.90;;;;;;5261583;28;20032;-79
2021/12/23 13:55:30;;;;;;;0.95;0.95;;;0.70;99.90;;;;;;5261242;28;20611;-79
2021/12/23 13:58:10;;;;;;;2.10;2.00;;;0.70;99.90;;;;;;5236697;28;20090;-78
2021/12/23 14:00:44;;;;;;;3.25;3.05;;;0.60;99.90;;;;;;5249094;28;21516;-78
2021/12/23 14:03:20;;;;;;;1.08;1.08;;;0.50;99.90;;;;;;5260451;28;20054;-79
2021/12/23 14:05:51;;;;;;;1.85;1.75;;;0.30;99.90;;;;;;5257577;28;20055;-79
2021/12/23 14:08:30;;;;;;;3.25;3.05;;;0.20;99.90;;;;;;5239987;28;20028;-78
2021/12/23 14:11:04;;;;;;;0.63;0.63;;;0.20;99.90;;;;;;5262810;28;20097;-79
2021/12/23 14:13:40;;;;;;;0.50;0.50;;;0.00;99.90;;;;;;5253283;28;20029;-79
2021/12/23 14:16:14;;;;;;;0.90;0.90;;;-0.10;99.90;;;;;;5245442;28;20028;-79
2021/12/23 14:18:58;;;;;;;2.85;2.65;;;0.00;99.90;;;;;;5230877;28;20020;-77
2021/12/23 14:24:26;;;;;;;1.15;1.15;;;0.00;99.90;;;;;;5231355;28;20032;-78
2021/12/23 14:26:58;;;;;;;0.60;0.60;;;0.10;99.90;;;;;;5245739;28;20313;-78
2021/12/23 14:29:37;;;;;;;1.80;1.70;;;0.10;99.90;;;;;;5240707;28;20312;-79
2021/12/23 14:32:18;;;;;;;1.13;1.13;;;0.20;99.90;;;;;;5261168;28;20145;-79
2021/12/23 14:34:49;;;;;;;0.50;0.50;;;0.20;99.90;;;;;;5259075;28;20055;-78
2021/12/23 14:37:20;;;;;;;0.60;0.60;;;0.00;99.90;;;;;;5260582;28;20039;-78
2021/12/23 14:39:57;;;;;;;2.40;2.30;;;0.00;99.90;;;;;;5262701;28;20222;-79
2021/12/23 14:42:32;;;;;;;0.82;0.82;;;0.00;99.90;;;;;;5258652;28;20043;-78
2021/12/23 14:45:08;;;;;;;1.08;1.08;;;0.00;99.90;;;;;;5260643;28;20063;-78
2021/12/23 14:47:41;;;;;;;1.17;1.17;;;-0.10;99.90;;;;;;5259966;28;20027;-78
2021/12/23 14:50:16;;;;;;;0.40;0.40;;;-0.20;99.90;;;;;;5260034;28;20698;-78